sensor_id;sensor_type;location;lat;lon;timestamp;noise_LAeq;noise_LA_min;noise_LA_max;noise_LA01;noise_LA95
77361;Laerm;66427;51.798;10.954;2023-03-24T00:02:26;29.28;28.08;34.90;;
77361;Laerm;66427;51.798;10.954;2023-03-24T00:04:52;31.36;29.28;39.04;;
77361;Laerm;66427;51.798;10.954;2023-03-24T00:07:22;31.46;27.68;41.97;;
77361;Laerm;66427;51.798;10.954;2023-03-24T00:09:48;29.91;28.29;39.44;;
77361;Laerm;66427;51.798;10.954;2023-03-24T00:12:15;29.71;27.88;36.30;;
77361;Laerm;66427;51.798;10.954;2023-03-24T00:14:44;29.21;28.00;33.28;;
77361;Laerm;66427;51.798;10.954;2023-03-24T00:17:12;30.06;27.85;37.44;;
77361;Laerm;66427;51.798;10.954;2023-03-24T00:19:39;30.54;28.33;37.44;;
77361;Laerm;66427;51.798;10.954;2023-03-24T00:22:07;30.31;28.47;43.53;;
77361;Laerm;66427;51.798;10.954;2023-03-24T00:24:38;32.52;29.27;44.39;;
77361;Laerm;66427;51.798;10.954;2023-03-24T00:27:04;33.75;32.05;38.81;;
77361;Laerm;66427;51.798;10.954;2023-03-24T00:29:30;34.89;31.43;44.73;;
77361;Laerm;66427;51.798;10.954;2023-03-24T00:31:56;34.77;31.49;42.98;;
77361;Laerm;66427;51.798;10.954;2023-03-24T00:34:22;32.52;30.85;36.49;;
77361;Laerm;66427;51.798;10.954;2023-03-24T00:36:48;35.25;30.58;48.35;;
77361;Laerm;66427;51.798;10.954;2023-03-24T00:39:16;35.27;31.32;52.19;;
77361;Laerm;66427;51.798;10.954;2023-03-24T00:41:42;33.53;30.34;38.99;;
77361;Laerm;66427;51.798;10.954;2023-03-24T00:44:09;31.05;29.52;34.98;;
77361;Laerm;66427;51.798;10.954;2023-03-24T00:46:42;36.58;29.36;59.09;;
77361;Laerm;66427;51.798;10.954;2023-03-24T00:49:10;31.74;29.60;39.73;;
77361;Laerm;66427;51.798;10.954;2023-03-24T00:51:40;52.71;29.58;70.00;;
77361;Laerm;66427;51.798;10.954;2023-03-24T00:54:09;31.95;29.39;44.04;;
77361;Laerm;66427;51.798;10.954;2023-03-24T00:56:35;29.86;28.23;42.02;;
77361;Laerm;66427;51.798;10.954;2023-03-24T00:59:04;30.55;28.34;42.06;;
77361;Laerm;66427;51.798;10.954;2023-03-24T01:01:30;50.61;28.15;65.42;;
77361;Laerm;66427;51.798;10.954;2023-03-24T01:03:58;32.07;28.17;48.35;;
77361;Laerm;66427;51.798;10.954;2023-03-24T01:06:25;34.93;28.63;45.15;;
77361;Laerm;66427;51.798;10.954;2023-03-24T01:08:51;31.03;27.95;42.02;;
77361;Laerm;66427;51.798;10.954;2023-03-24T01:11:20;30.48;28.86;35.37;;
77361;Laerm;66427;51.798;10.954;2023-03-24T01:13:47;29.88;28.01;33.48;;
77361;Laerm;66427;51.798;10.954;2023-03-24T01:16:13;32.32;28.20;41.45;;
77361;Laerm;66427;51.798;10.954;2023-03-24T01:18:40;30.22;28.54;37.49;;
77361;Laerm;66427;51.798;10.954;2023-03-24T01:21:07;30.39;28.77;33.87;;
77361;Laerm;66427;51.798;10.954;2023-03-24T01:23:33;31.51;29.25;39.98;;
77361;Laerm;66427;51.798;10.954;2023-03-24T01:26:00;31.93;28.80;37.34;;
77361;Laerm;66427;51.798;10.954;2023-03-24T01:28:29;33.13;30.26;39.97;;
77361;Laerm;66427;51.798;10.954;2023-03-24T01:30:55;33.00;29.76;39.32;;
77361;Laerm;66427;51.798;10.954;2023-03-24T01:33:21;31.53;29.70;36.74;;
77361;Laerm;66427;51.798;10.954;2023-03-24T01:35:47;39.95;30.31;49.78;;
77361;Laerm;66427;51.798;10.954;2023-03-24T01:38:13;34.14;29.38;43.85;;
77361;Laerm;66427;51.798;10.954;2023-03-24T01:40:40;34.61;30.32;44.89;;
77361;Laerm;66427;51.798;10.954;2023-03-24T01:43:06;31.34;29.17;34.01;;
77361;Laerm;66427;51.798;10.954;2023-03-24T01:51:11;52.11;28.03;69.09;;
77361;Laerm;66427;51.798;10.954;2023-03-24T01:53:39;29.26;28.03;33.53;;
77361;Laerm;66427;51.798;10.954;2023-03-24T01:56:07;30.71;28.53;34.66;;
77361;Laerm;66427;51.798;10.954;2023-03-24T01:58:34;31.09;28.72;38.12;;
77361;Laerm;66427;51.798;10.954;2023-03-24T02:01:01;29.17;27.92;38.28;;
77361;Laerm;66427;51.798;10.954;2023-03-24T02:03:28;29.49;28.17;32.16;;
77361;Laerm;66427;51.798;10.954;2023-03-24T02:05:58;28.94;27.53;39.99;;
77361;Laerm;66427;51.798;10.954;2023-03-24T02:08:35;32.10;27.71;45.57;;
77361;Laerm;66427;51.798;10.954;2023-03-24T02:11:02;29.40;27.85;39.07;;
77361;Laerm;66427;51.798;10.954;2023-03-24T02:13:28;30.01;27.31;40.07;;
77361;Laerm;66427;51.798;10.954;2023-03-24T02:18:43;35.83;28.12;50.51;;
77361;Laerm;66427;51.798;10.954;2023-03-24T02:31:59;34.32;28.55;48.41;;
77361;Laerm;66427;51.798;10.954;2023-03-24T02:34:41;29.86;27.66;39.80;;
77361;Laerm;66427;51.798;10.954;2023-03-24T02:37:34;29.71;27.53;40.03;;
77361;Laerm;66427;51.798;10.954;2023-03-24T02:40:02;33.74;27.62;47.93;;
77361;Laerm;66427;51.798;10.954;2023-03-24T02:45:24;29.12;27.85;38.50;;
77361;Laerm;66427;51.798;10.954;2023-03-24T02:47:59;31.19;28.00;43.30;;
77361;Laerm;66427;51.798;10.954;2023-03-24T02:50:32;29.35;28.18;37.03;;
77361;Laerm;66427;51.798;10.954;2023-03-24T02:53:08;29.35;27.71;34.34;;
77361;Laerm;66427;51.798;10.954;2023-03-24T02:58:07;31.47;28.92;48.08;;
77361;Laerm;66427;51.798;10.954;2023-03-24T03:00:44;40.57;28.87;58.62;;
77361;Laerm;66427;51.798;10.954;2023-03-24T03:03:23;53.12;28.41;70.66;;
77361;Laerm;66427;51.798;10.954;2023-03-24T03:06:05;31.69;29.28;47.74;;
77361;Laerm;66427;51.798;10.954;2023-03-24T03:08:33;31.74;28.73;46.53;;
77361;Laerm;66427;51.798;10.954;2023-03-24T03:11:01;31.19;28.35;42.76;;
77361;Laerm;66427;51.798;10.954;2023-03-24T03:13:33;31.61;28.62;38.27;;
77361;Laerm;66427;51.798;10.954;2023-03-24T03:16:03;30.80;28.40;37.79;;
77361;Laerm;66427;51.798;10.954;2023-03-24T03:18:37;31.24;28.97;42.32;;
77361;Laerm;66427;51.798;10.954;2023-03-24T03:21:07;32.26;29.07;40.91;;
77361;Laerm;66427;51.798;10.954;2023-03-24T03:23:36;31.76;29.28;40.32;;
77361;Laerm;66427;51.798;10.954;2023-03-24T03:26:04;32.21;29.80;39.87;;
77361;Laerm;66427;51.798;10.954;2023-03-24T03:28:34;35.08;29.50;41.87;;
77361;Laerm;66427;51.798;10.954;2023-03-24T03:31:04;32.76;29.73;38.78;;
77361;Laerm;66427;51.798;10.954;2023-03-24T03:33:34;32.96;30.23;39.91;;
77361;Laerm;66427;51.798;10.954;2023-03-24T03:36:11;32.61;30.48;38.07;;
77361;Laerm;66427;51.798;10.954;2023-03-24T03:38:53;32.58;29.98;46.10;;
77361;Laerm;66427;51.798;10.954;2023-03-24T03:41:20;34.44;30.68;49.39;;
77361;Laerm;66427;51.798;10.954;2023-03-24T03:43:46;32.67;30.04;40.08;;
77361;Laerm;66427;51.798;10.954;2023-03-24T03:46:14;34.10;30.49;43.12;;
77361;Laerm;66427;51.798;10.954;2023-03-24T03:48:40;35.60;30.98;46.05;;
77361;Laerm;66427;51.798;10.954;2023-03-24T03:51:07;36.08;30.70;49.81;;
77361;Laerm;66427;51.798;10.954;2023-03-24T03:53:37;50.40;30.71;63.06;;
77361;Laerm;66427;51.798;10.954;2023-03-24T03:56:04;47.72;31.95;62.96;;
77361;Laerm;66427;51.798;10.954;2023-03-24T03:58:29;48.58;32.01;60.74;;
77361;Laerm;66427;51.798;10.954;2023-03-24T04:00:55;47.71;31.23;58.63;;
77361;Laerm;66427;51.798;10.954;2023-03-24T04:03:31;53.52;31.57;66.37;;
77361;Laerm;66427;51.798;10.954;2023-03-24T04:06:03;52.76;32.03;66.56;;
77361;Laerm;66427;51.798;10.954;2023-03-24T04:08:39;48.21;32.28;58.71;;
77361;Laerm;66427;51.798;10.954;2023-03-24T04:19:08;55.43;33.57;70.89;;
77361;Laerm;66427;51.798;10.954;2023-03-24T04:21:45;56.90;34.83;72.29;;
77361;Laerm;66427;51.798;10.954;2023-03-24T04:24:15;53.15;34.33;65.02;;
77361;Laerm;66427;51.798;10.954;2023-03-24T04:27:26;52.22;34.49;63.19;;
77361;Laerm;66427;51.798;10.954;2023-03-24T04:29:36;53.45;35.41;65.00;;
77361;Laerm;66427;51.798;10.954;2023-03-24T04:32:12;51.93;35.84;65.68;;
77361;Laerm;66427;51.798;10.954;2023-03-24T04:34:45;47.73;35.16;58.28;;
77361;Laerm;66427;51.798;10.954;2023-03-24T04:37:18;47.94;36.07;61.97;;
77361;Laerm;66427;51.798;10.954;2023-03-24T04:39:45;56.21;35.55;74.12;;
77361;Laerm;66427;51.798;10.954;2023-03-24T04:42:17;49.45;36.00;62.56;;
77361;Laerm;66427;51.798;10.954;2023-03-24T04:44:44;49.26;36.25;58.10;;
77361;Laerm;66427;51.798;10.954;2023-03-24T04:47:10;52.31;36.48;65.53;;
77361;Laerm;66427;51.798;10.954;2023-03-24T04:49:37;53.30;35.39;66.46;;
77361;Laerm;66427;51.798;10.954;2023-03-24T04:52:04;53.43;35.84;67.45;;
77361;Laerm;66427;51.798;10.954;2023-03-24T04:54:30;45.14;34.64;63.65;;
77361;Laerm;66427;51.798;10.954;2023-03-24T04:56:56;46.83;34.43;60.24;;
77361;Laerm;66427;51.798;10.954;2023-03-24T04:59:23;53.31;35.33;67.72;;
77361;Laerm;66427;51.798;10.954;2023-03-24T05:01:50;46.46;34.82;62.32;;
77361;Laerm;66427;51.798;10.954;2023-03-24T05:04:16;48.34;35.00;64.12;;
77361;Laerm;66427;51.798;10.954;2023-03-24T05:06:42;54.28;34.66;71.07;;
77361;Laerm;66427;51.798;10.954;2023-03-24T05:09:08;39.86;34.23;51.28;;
77361;Laerm;66427;51.798;10.954;2023-03-24T05:11:34;50.20;35.78;66.12;;
77361;Laerm;66427;51.798;10.954;2023-03-24T05:14:00;49.51;35.25;63.87;;
77361;Laerm;66427;51.798;10.954;2023-03-24T05:16:26;55.90;35.61;70.24;;
77361;Laerm;66427;51.798;10.954;2023-03-24T05:18:52;40.17;35.09;47.70;;
77361;Laerm;66427;51.798;10.954;2023-03-24T05:21:19;47.27;35.79;61.17;;
77361;Laerm;66427;51.798;10.954;2023-03-24T05:23:45;53.86;37.27;67.90;;
77361;Laerm;66427;51.798;10.954;2023-03-24T05:26:11;55.42;37.32;70.10;;
77361;Laerm;66427;51.798;10.954;2023-03-24T05:28:37;54.24;39.04;68.55;;
77361;Laerm;66427;51.798;10.954;2023-03-24T05:31:03;55.99;38.53;70.13;;
77361;Laerm;66427;51.798;10.954;2023-03-24T05:33:29;60.17;40.85;77.99;;
77361;Laerm;66427;51.798;10.954;2023-03-24T05:35:55;61.36;40.33;79.01;;
77361;Laerm;66427;51.798;10.954;2023-03-24T05:38:21;54.20;39.44;68.02;;
77361;Laerm;66427;51.798;10.954;2023-03-24T05:40:47;58.39;42.07;79.82;;
77361;Laerm;66427;51.798;10.954;2023-03-24T05:43:13;60.40;44.77;81.84;;
77361;Laerm;66427;51.798;10.954;2023-03-24T05:45:38;56.60;40.60;78.50;;
77361;Laerm;66427;51.798;10.954;2023-03-24T05:48:04;60.23;42.00;71.30;;
77361;Laerm;66427;51.798;10.954;2023-03-24T05:50:30;55.17;41.56;68.80;;
77361;Laerm;66427;51.798;10.954;2023-03-24T05:52:56;58.24;41.82;69.60;;
77361;Laerm;66427;51.798;10.954;2023-03-24T05:55:22;61.99;40.93;75.34;;
77361;Laerm;66427;51.798;10.954;2023-03-24T05:57:47;59.01;41.23;74.79;;
77361;Laerm;66427;51.798;10.954;2023-03-24T06:00:14;61.84;42.16;72.97;;
77361;Laerm;66427;51.798;10.954;2023-03-24T06:02:43;60.87;40.75;73.47;;
77361;Laerm;66427;51.798;10.954;2023-03-24T06:05:09;64.58;40.37;78.31;;
77361;Laerm;66427;51.798;10.954;2023-03-24T06:07:39;60.70;40.32;72.81;;
77361;Laerm;66427;51.798;10.954;2023-03-24T06:10:07;61.00;41.02;71.01;;
77361;Laerm;66427;51.798;10.954;2023-03-24T06:12:34;56.05;39.41;68.10;;
77361;Laerm;66427;51.798;10.954;2023-03-24T06:15:00;45.46;39.93;55.96;;
77361;Laerm;66427;51.798;10.954;2023-03-24T06:17:28;56.68;40.06;69.09;;
77361;Laerm;66427;51.798;10.954;2023-03-24T06:19:54;60.83;41.85;76.31;;
77361;Laerm;66427;51.798;10.954;2023-03-24T06:22:32;59.83;42.35;70.79;;
77361;Laerm;66427;51.798;10.954;2023-03-24T06:24:58;55.40;41.02;67.38;;
77361;Laerm;66427;51.798;10.954;2023-03-24T06:27:25;60.42;42.92;69.11;;
77361;Laerm;66427;51.798;10.954;2023-03-24T06:29:57;60.57;47.52;76.39;;
77361;Laerm;66427;51.798;10.954;2023-03-24T06:32:24;61.03;49.59;74.59;;
77361;Laerm;66427;51.798;10.954;2023-03-24T06:34:50;62.60;41.40;76.79;;
77361;Laerm;66427;51.798;10.954;2023-03-24T06:37:16;58.28;41.34;71.28;;
77361;Laerm;66427;51.798;10.954;2023-03-24T06:39:42;59.52;41.28;71.55;;
77361;Laerm;66427;51.798;10.954;2023-03-24T06:42:09;57.65;40.80;69.15;;
77361;Laerm;66427;51.798;10.954;2023-03-24T06:44:35;59.33;43.05;68.51;;
77361;Laerm;66427;51.798;10.954;2023-03-24T06:47:00;58.16;40.74;67.99;;
77361;Laerm;66427;51.798;10.954;2023-03-24T06:49:29;58.76;41.22;73.11;;
77361;Laerm;66427;51.798;10.954;2023-03-24T06:51:55;48.08;39.44;63.12;;
77361;Laerm;66427;51.798;10.954;2023-03-24T06:54:20;54.81;40.29;68.21;;
77361;Laerm;66427;51.798;10.954;2023-03-24T06:56:46;57.37;41.32;68.83;;
77361;Laerm;66427;51.798;10.954;2023-03-24T06:59:12;54.03;37.58;70.37;;
77361;Laerm;66427;51.798;10.954;2023-03-24T07:01:38;44.31;38.65;53.35;;
77361;Laerm;66427;51.798;10.954;2023-03-24T07:04:04;57.55;40.52;70.82;;
77361;Laerm;66427;51.798;10.954;2023-03-24T07:06:30;56.67;37.80;72.83;;
77361;Laerm;66427;51.798;10.954;2023-03-24T07:08:58;55.29;39.40;69.49;;
77361;Laerm;66427;51.798;10.954;2023-03-24T07:11:24;56.46;39.08;67.90;;
77361;Laerm;66427;51.798;10.954;2023-03-24T07:13:51;56.67;37.32;71.94;;
77361;Laerm;66427;51.798;10.954;2023-03-24T07:16:17;52.98;38.30;66.24;;
77361;Laerm;66427;51.798;10.954;2023-03-24T07:18:42;42.74;37.18;53.58;;
77361;Laerm;66427;51.798;10.954;2023-03-24T07:21:08;51.79;38.86;63.67;;
77361;Laerm;66427;51.798;10.954;2023-03-24T07:23:34;56.50;38.72;67.50;;
77361;Laerm;66427;51.798;10.954;2023-03-24T07:26:01;55.26;38.37;68.04;;
77361;Laerm;66427;51.798;10.954;2023-03-24T07:28:26;51.89;37.33;65.73;;
77361;Laerm;66427;51.798;10.954;2023-03-24T07:30:53;59.83;38.86;73.86;;
77361;Laerm;66427;51.798;10.954;2023-03-24T07:33:18;58.09;38.59;75.57;;
77361;Laerm;66427;51.798;10.954;2023-03-24T07:35:47;56.38;37.82;71.08;;
77361;Laerm;66427;51.798;10.954;2023-03-24T07:38:12;56.29;39.27;68.81;;
77361;Laerm;66427;51.798;10.954;2023-03-24T07:40:38;55.21;39.39;71.46;;
77361;Laerm;66427;51.798;10.954;2023-03-24T07:43:04;52.49;38.20;67.98;;
77361;Laerm;66427;51.798;10.954;2023-03-24T07:45:30;56.62;37.49;71.97;;
77361;Laerm;66427;51.798;10.954;2023-03-24T07:47:56;58.28;38.45;68.07;;
77361;Laerm;66427;51.798;10.954;2023-03-24T07:50:26;54.67;38.64;69.93;;
77361;Laerm;66427;51.798;10.954;2023-03-24T07:52:52;55.17;39.49;68.14;;
77361;Laerm;66427;51.798;10.954;2023-03-24T07:55:18;58.18;39.01;73.99;;
77361;Laerm;66427;51.798;10.954;2023-03-24T07:57:44;49.53;36.95;62.73;;
77361;Laerm;66427;51.798;10.954;2023-03-24T08:00:11;55.02;37.56;69.10;;
77361;Laerm;66427;51.798;10.954;2023-03-24T08:02:42;55.24;38.17;66.30;;
77361;Laerm;66427;51.798;10.954;2023-03-24T08:05:09;56.07;38.71;70.46;;
77361;Laerm;66427;51.798;10.954;2023-03-24T08:07:41;56.23;40.50;66.25;;
77361;Laerm;66427;51.798;10.954;2023-03-24T08:10:08;55.81;37.31;71.31;;
77361;Laerm;66427;51.798;10.954;2023-03-24T08:12:34;55.37;39.10;71.72;;
77361;Laerm;66427;51.798;10.954;2023-03-24T08:15:00;57.15;39.04;65.90;;
77361;Laerm;66427;51.798;10.954;2023-03-24T08:17:26;56.66;40.47;66.78;;
77361;Laerm;66427;51.798;10.954;2023-03-24T08:19:52;50.39;37.59;65.19;;
77361;Laerm;66427;51.798;10.954;2023-03-24T08:22:18;56.14;38.36;72.22;;
77361;Laerm;66427;51.798;10.954;2023-03-24T08:24:44;60.65;40.56;75.99;;
77361;Laerm;66427;51.798;10.954;2023-03-24T08:27:09;54.23;42.30;68.52;;
77361;Laerm;66427;51.798;10.954;2023-03-24T08:29:35;61.55;46.23;82.87;;
77361;Laerm;66427;51.798;10.954;2023-03-24T08:32:01;63.93;48.05;74.01;;
77361;Laerm;66427;51.798;10.954;2023-03-24T08:34:27;61.49;45.09;76.42;;
77361;Laerm;66427;51.798;10.954;2023-03-24T08:36:53;50.50;39.94;67.31;;
77361;Laerm;66427;51.798;10.954;2023-03-24T08:39:19;60.83;41.41;74.20;;
77361;Laerm;66427;51.798;10.954;2023-03-24T08:41:45;58.19;42.15;71.55;;
77361;Laerm;66427;51.798;10.954;2023-03-24T08:44:11;58.40;39.51;71.77;;
77361;Laerm;66427;51.798;10.954;2023-03-24T08:46:38;50.01;38.73;67.06;;
77361;Laerm;66427;51.798;10.954;2023-03-24T08:49:04;57.63;39.56;69.53;;
77361;Laerm;66427;51.798;10.954;2023-03-24T08:51:30;59.32;40.41;70.86;;
77361;Laerm;66427;51.798;10.954;2023-03-24T08:53:56;58.00;40.53;82.60;;
77361;Laerm;66427;51.798;10.954;2023-03-24T08:56:23;57.04;38.23;71.39;;
77361;Laerm;66427;51.798;10.954;2023-03-24T08:58:49;62.37;38.50;77.65;;
77361;Laerm;66427;51.798;10.954;2023-03-24T09:01:18;57.60;37.95;68.91;;
77361;Laerm;66427;51.798;10.954;2023-03-24T09:03:44;57.62;40.26;71.74;;
77361;Laerm;66427;51.798;10.954;2023-03-24T09:06:11;56.20;39.17;67.28;;
77361;Laerm;66427;51.798;10.954;2023-03-24T09:08:37;59.70;37.20;76.40;;
77361;Laerm;66427;51.798;10.954;2023-03-24T09:11:03;56.57;38.44;72.50;;
77361;Laerm;66427;51.798;10.954;2023-03-24T09:13:29;56.95;39.11;72.57;;
77361;Laerm;66427;51.798;10.954;2023-03-24T09:16:02;57.51;39.52;68.38;;
77361;Laerm;66427;51.798;10.954;2023-03-24T09:18:28;58.65;40.22;68.64;;
77361;Laerm;66427;51.798;10.954;2023-03-24T09:20:53;55.55;40.29;66.54;;
77361;Laerm;66427;51.798;10.954;2023-03-24T09:23:20;60.33;42.22;70.85;;
77361;Laerm;66427;51.798;10.954;2023-03-24T09:25:49;55.55;39.76;67.59;;
77361;Laerm;66427;51.798;10.954;2023-03-24T09:28:15;55.64;41.46;64.62;;
77361;Laerm;66427;51.798;10.954;2023-03-24T09:30:41;64.49;43.80;79.38;;
77361;Laerm;66427;51.798;10.954;2023-03-24T09:33:07;60.91;44.73;71.28;;
77361;Laerm;66427;51.798;10.954;2023-03-24T09:35:33;63.89;42.17;79.11;;
77361;Laerm;66427;51.798;10.954;2023-03-24T09:37:59;56.96;39.98;73.31;;
77361;Laerm;66427;51.798;10.954;2023-03-24T09:40:29;62.21;39.15;84.67;;
77361;Laerm;66427;51.798;10.954;2023-03-24T09:45:48;51.52;38.90;65.24;;
77361;Laerm;66427;51.798;10.954;2023-03-24T09:48:17;53.13;38.40;65.06;;
77361;Laerm;66427;51.798;10.954;2023-03-24T09:50:49;55.88;38.16;69.67;;
77361;Laerm;66427;51.798;10.954;2023-03-24T09:53:30;56.50;39.20;71.11;;
77361;Laerm;66427;51.798;10.954;2023-03-24T09:56:00;53.32;40.24;65.87;;
77361;Laerm;66427;51.798;10.954;2023-03-24T09:58:28;53.12;39.11;66.95;;
77361;Laerm;66427;51.798;10.954;2023-03-24T10:00:58;54.77;38.39;67.29;;
77361;Laerm;66427;51.798;10.954;2023-03-24T10:03:24;56.86;39.07;71.73;;
77361;Laerm;66427;51.798;10.954;2023-03-24T10:05:53;54.49;38.32;66.27;;
77361;Laerm;66427;51.798;10.954;2023-03-24T10:08:31;52.33;38.25;66.36;;
77361;Laerm;66427;51.798;10.954;2023-03-24T10:11:04;55.12;39.32;73.20;;
77361;Laerm;66427;51.798;10.954;2023-03-24T10:18:48;55.94;38.95;68.48;;
77361;Laerm;66427;51.798;10.954;2023-03-24T10:21:18;58.21;40.99;74.13;;
77361;Laerm;66427;51.798;10.954;2023-03-24T10:23:51;55.28;40.02;68.13;;
77361;Laerm;66427;51.798;10.954;2023-03-24T10:26:30;64.39;40.49;83.75;;
77361;Laerm;66427;51.798;10.954;2023-03-24T10:31:30;55.66;39.87;70.60;;
77361;Laerm;66427;51.798;10.954;2023-03-24T10:33:57;60.11;40.70;73.12;;
77361;Laerm;66427;51.798;10.954;2023-03-24T10:36:23;56.83;38.63;72.79;;
77361;Laerm;66427;51.798;10.954;2023-03-24T10:38:50;60.34;38.99;76.79;;
77361;Laerm;66427;51.798;10.954;2023-03-24T10:41:20;60.75;40.16;76.28;;
77361;Laerm;66427;51.798;10.954;2023-03-24T10:43:46;58.38;40.15;70.32;;
77361;Laerm;66427;51.798;10.954;2023-03-24T10:46:13;52.29;39.35;67.04;;
77361;Laerm;66427;51.798;10.954;2023-03-24T10:48:42;62.38;41.90;77.85;;
77361;Laerm;66427;51.798;10.954;2023-03-24T10:51:31;52.39;39.27;64.35;;
77361;Laerm;66427;51.798;10.954;2023-03-24T10:54:11;57.43;39.90;68.82;;
77361;Laerm;66427;51.798;10.954;2023-03-24T10:56:41;48.97;38.86;63.96;;
77361;Laerm;66427;51.798;10.954;2023-03-24T11:01:59;55.50;40.25;67.95;;
77361;Laerm;66427;51.798;10.954;2023-03-24T11:04:26;47.10;38.61;59.43;;
77361;Laerm;66427;51.798;10.954;2023-03-24T11:09:24;59.53;37.73;81.72;;
77361;Laerm;66427;51.798;10.954;2023-03-24T11:11:50;53.64;39.34;67.00;;
77361;Laerm;66427;51.798;10.954;2023-03-24T11:14:21;52.98;38.22;70.90;;
77361;Laerm;66427;51.798;10.954;2023-03-24T11:16:50;55.95;38.35;69.43;;
77361;Laerm;66427;51.798;10.954;2023-03-24T11:19:20;50.63;38.06;65.34;;
77361;Laerm;66427;51.798;10.954;2023-03-24T11:21:46;52.42;38.81;65.59;;
77361;Laerm;66427;51.798;10.954;2023-03-24T11:24:16;51.45;37.77;63.43;;
77361;Laerm;66427;51.798;10.954;2023-03-24T11:27:04;54.88;37.40;68.17;;
77361;Laerm;66427;51.798;10.954;2023-03-24T11:29:31;52.94;37.25;63.81;;
77361;Laerm;66427;51.798;10.954;2023-03-24T11:31:58;54.31;39.21;64.84;;
77361;Laerm;66427;51.798;10.954;2023-03-24T11:34:30;55.19;39.21;64.70;;
77361;Laerm;66427;51.798;10.954;2023-03-24T11:37:01;52.57;38.30;68.68;;
77361;Laerm;66427;51.798;10.954;2023-03-24T11:39:29;51.57;36.75;64.48;;
77361;Laerm;66427;51.798;10.954;2023-03-24T11:42:15;54.55;37.04;67.17;;
77361;Laerm;66427;51.798;10.954;2023-03-24T11:44:46;53.75;37.40;63.56;;
77361;Laerm;66427;51.798;10.954;2023-03-24T11:47:20;51.67;37.85;64.64;;
77361;Laerm;66427;51.798;10.954;2023-03-24T11:50:22;53.40;38.82;64.96;;
77361;Laerm;66427;51.798;10.954;2023-03-24T11:52:44;54.12;37.12;65.09;;
77361;Laerm;66427;51.798;10.954;2023-03-24T11:55:13;62.55;37.59;83.63;;
77361;Laerm;66427;51.798;10.954;2023-03-24T11:57:58;54.27;37.15;70.43;;
77361;Laerm;66427;51.798;10.954;2023-03-24T12:00:31;59.58;42.06;76.27;;
77361;Laerm;66427;51.798;10.954;2023-03-24T12:05:49;51.50;37.79;65.29;;
77361;Laerm;66427;51.798;10.954;2023-03-24T12:10:43;55.25;38.08;66.97;;
77361;Laerm;66427;51.798;10.954;2023-03-24T12:15:50;57.64;40.72;67.65;;
77361;Laerm;66427;51.798;10.954;2023-03-24T12:18:35;59.54;40.01;76.38;;
77361;Laerm;66427;51.798;10.954;2023-03-24T12:23:53;54.02;38.54;66.61;;
77361;Laerm;66427;51.798;10.954;2023-03-24T12:26:28;55.91;40.20;77.77;;
77361;Laerm;66427;51.798;10.954;2023-03-24T12:31:45;55.16;42.07;70.52;;
77361;Laerm;66427;51.798;10.954;2023-03-24T12:39:10;54.60;40.22;65.47;;
77361;Laerm;66427;51.798;10.954;2023-03-24T12:47:05;56.62;40.56;70.43;;
77361;Laerm;66427;51.798;10.954;2023-03-24T12:49:56;63.68;40.55;82.08;;
77361;Laerm;66427;51.798;10.954;2023-03-24T12:55:03;56.64;37.56;72.89;;
77361;Laerm;66427;51.798;10.954;2023-03-24T12:57:35;52.46;37.55;66.43;;
77361;Laerm;66427;51.798;10.954;2023-03-24T13:00:04;59.49;36.96;72.47;;
77361;Laerm;66427;51.798;10.954;2023-03-24T13:02:41;53.79;39.02;65.51;;
77361;Laerm;66427;51.798;10.954;2023-03-24T13:05:29;48.50;38.31;60.82;;
77361;Laerm;66427;51.798;10.954;2023-03-24T13:07:56;58.14;36.86;71.82;;
77361;Laerm;66427;51.798;10.954;2023-03-24T13:10:27;63.56;39.87;80.21;;
77361;Laerm;66427;51.798;10.954;2023-03-24T13:13:04;51.42;38.48;66.84;;
77361;Laerm;66427;51.798;10.954;2023-03-24T13:15:33;55.64;37.42;71.62;;
77361;Laerm;66427;51.798;10.954;2023-03-24T13:26:00;53.02;43.78;64.26;;
77361;Laerm;66427;51.798;10.954;2023-03-24T13:28:33;55.71;39.03;67.74;;
77361;Laerm;66427;51.798;10.954;2023-03-24T13:31:03;49.25;38.40;64.44;;
77361;Laerm;66427;51.798;10.954;2023-03-24T13:33:29;58.99;40.38;73.64;;
77361;Laerm;66427;51.798;10.954;2023-03-24T13:38:34;52.84;40.10;67.07;;
77361;Laerm;66427;51.798;10.954;2023-03-24T13:41:05;61.25;39.43;80.27;;
77361;Laerm;66427;51.798;10.954;2023-03-24T13:43:31;54.79;38.91;65.55;;
77361;Laerm;66427;51.798;10.954;2023-03-24T13:46:01;53.65;41.08;64.04;;
77361;Laerm;66427;51.798;10.954;2023-03-24T13:48:30;52.92;40.44;65.05;;
77361;Laerm;66427;51.798;10.954;2023-03-24T13:50:59;51.75;38.43;66.43;;
77361;Laerm;66427;51.798;10.954;2023-03-24T13:53:29;55.54;41.39;68.61;;
77361;Laerm;66427;51.798;10.954;2023-03-24T13:55:56;57.71;41.69;71.35;;
77361;Laerm;66427;51.798;10.954;2023-03-24T13:58:23;53.75;39.63;66.26;;
77361;Laerm;66427;51.798;10.954;2023-03-24T14:03:34;54.38;40.00;68.67;;
77361;Laerm;66427;51.798;10.954;2023-03-24T14:06:03;54.65;38.50;66.73;;
77361;Laerm;66427;51.798;10.954;2023-03-24T14:08:53;53.98;38.40;69.39;;
77361;Laerm;66427;51.798;10.954;2023-03-24T14:16:48;60.06;40.75;74.13;;
77361;Laerm;66427;51.798;10.954;2023-03-24T14:19:23;63.27;41.73;81.76;;
77361;Laerm;66427;51.798;10.954;2023-03-24T14:21:51;55.03;41.17;67.89;;
77361;Laerm;66427;51.798;10.954;2023-03-24T14:24:22;56.92;41.86;68.94;;
77361;Laerm;66427;51.798;10.954;2023-03-24T14:26:50;53.43;40.19;71.10;;
77361;Laerm;66427;51.798;10.954;2023-03-24T14:29:36;51.78;39.10;62.54;;
77361;Laerm;66427;51.798;10.954;2023-03-24T14:32:02;57.13;40.21;72.15;;
77361;Laerm;66427;51.798;10.954;2023-03-24T14:34:28;58.17;41.99;74.79;;
77361;Laerm;66427;51.798;10.954;2023-03-24T14:37:01;55.97;42.03;69.23;;
77361;Laerm;66427;51.798;10.954;2023-03-24T14:41:59;53.32;39.85;65.76;;
77361;Laerm;66427;51.798;10.954;2023-03-24T14:47:09;56.68;38.99;76.13;;
77361;Laerm;66427;51.798;10.954;2023-03-24T14:49:36;52.78;39.68;66.09;;
77361;Laerm;66427;51.798;10.954;2023-03-24T14:54:38;54.00;38.67;66.00;;
77361;Laerm;66427;51.798;10.954;2023-03-24T14:57:08;55.45;40.01;70.07;;
77361;Laerm;66427;51.798;10.954;2023-03-24T14:59:44;53.25;38.47;64.69;;
77361;Laerm;66427;51.798;10.954;2023-03-24T15:07:44;57.05;39.41;70.51;;
77361;Laerm;66427;51.798;10.954;2023-03-24T15:10:14;55.21;41.53;64.95;;
77361;Laerm;66427;51.798;10.954;2023-03-24T15:12:44;66.70;39.95;86.18;;
77361;Laerm;66427;51.798;10.954;2023-03-24T15:15:13;55.07;38.92;67.24;;
77361;Laerm;66427;51.798;10.954;2023-03-24T15:17:41;52.49;38.37;64.05;;
77361;Laerm;66427;51.798;10.954;2023-03-24T15:20:18;54.26;39.74;66.28;;
77361;Laerm;66427;51.798;10.954;2023-03-24T15:22:47;54.98;38.57;66.57;;
77361;Laerm;66427;51.798;10.954;2023-03-24T15:25:13;52.16;38.67;65.95;;
77361;Laerm;66427;51.798;10.954;2023-03-24T15:27:40;57.28;40.26;72.30;;
77361;Laerm;66427;51.798;10.954;2023-03-24T15:30:13;61.15;38.49;77.91;;